Fellsmere, Florida
Current Conditions -  °F | °C
As of 11:53 PM on Monday 20 Oct 2014 (Local Time) from KVRB Reporting Station
Clear Clear  
Wind Chill: 21°   Ceiling: Unl
Heat Index: 21°   Visibility: 10mi
Dew Point: 19°   Wind: 3mph
Humidity: 90%   Direction: 250°WSW
Pressure: 29.98"   Gusts: NA
Location:  27.77°N, 80.6°W
Report Text: KVRB 210353Z AUTO 25003KT 10SM CLR 21/19 A2998 RMK AO2 SLP152 T02110194
Loading
Personal Weather Stations






























Interactive Weather Map
Tropical Storm Tracking
New forecast layout! Learn more

10-Day Weather Forecast

Advertisements
Track Severe Weather on mobile